createdAt,value
2022-12-08T00:01:27.649Z,4.10
2022-12-08T00:03:55.484Z,3.92
2022-12-08T00:06:46.016Z,3.83
2022-12-08T00:09:39.374Z,4.22
2022-12-08T00:12:08.440Z,3.17
2022-12-08T00:14:38.701Z,3.53
2022-12-08T00:17:07.680Z,2.80
2022-12-08T00:19:34.519Z,3.22
2022-12-08T00:22:03.304Z,2.97
2022-12-08T00:24:32.923Z,3.25
2022-12-08T00:27:00.160Z,3.20
2022-12-08T00:29:27.249Z,3.22
2022-12-08T00:31:54.626Z,2.92
2022-12-08T00:34:21.570Z,2.67
2022-12-08T00:36:48.703Z,2.67
2022-12-08T00:39:17.217Z,3.03
2022-12-08T00:42:03.607Z,2.63
2022-12-08T00:44:30.451Z,2.75
2022-12-08T00:46:57.557Z,3.13
2022-12-08T00:49:24.716Z,2.67
2022-12-08T00:51:52.376Z,2.92
2022-12-08T00:54:19.661Z,2.40
2022-12-08T00:56:46.793Z,2.13
2022-12-08T00:59:13.816Z,2.72
2022-12-08T01:01:41.488Z,2.35
2022-12-08T01:04:11.359Z,2.30
2022-12-08T01:06:39.497Z,2.17
2022-12-08T01:09:07.821Z,2.67
2022-12-08T01:11:36.633Z,2.13
2022-12-08T01:14:03.796Z,2.35
2022-12-08T01:16:33.712Z,2.33
2022-12-08T01:19:02.011Z,2.47
2022-12-08T01:21:29.480Z,2.53
2022-12-08T01:23:58.001Z,2.20
2022-12-08T01:26:25.068Z,2.40
2022-12-08T01:29:11.794Z,2.17
2022-12-08T01:31:39.406Z,2.58
2022-12-08T01:34:07.215Z,2.17
2022-12-08T01:36:38.530Z,2.28
2022-12-08T01:39:14.242Z,2.30
2022-12-08T01:41:43.712Z,2.63
2022-12-08T01:44:13.325Z,2.22
2022-12-08T01:46:42.620Z,2.30
2022-12-08T01:49:18.506Z,2.45
2022-12-08T01:51:54.437Z,2.35
2022-12-08T01:54:26.288Z,2.50
2022-12-08T01:57:08.737Z,2.63
2022-12-08T01:59:42.065Z,2.47
2022-12-08T02:02:11.556Z,2.40
2022-12-08T02:04:38.907Z,2.72
2022-12-08T02:07:08.600Z,2.28
2022-12-08T02:09:38.483Z,2.50
2022-12-08T02:12:05.871Z,2.47
2022-12-08T02:14:34.289Z,2.10
2022-12-08T02:17:07.702Z,2.42
2022-12-08T02:19:59.569Z,2.17
2022-12-08T02:22:32.337Z,2.33
2022-12-08T02:25:12.370Z,2.00
2022-12-08T02:28:11.621Z,3.03
2022-12-08T02:31:01.320Z,2.70
2022-12-08T02:33:40.239Z,2.50
2022-12-08T02:36:24.388Z,2.50
2022-12-08T02:39:11.431Z,2.90
2022-12-08T02:42:01.399Z,2.85
2022-12-08T02:44:53.004Z,2.83
2022-12-08T02:47:23.755Z,2.97
2022-12-08T02:49:50.884Z,3.45
2022-12-08T02:52:17.679Z,2.85
2022-12-08T02:54:50.689Z,3.03
2022-12-08T02:57:38.043Z,2.53
2022-12-08T03:00:17.851Z,2.83
2022-12-08T03:02:47.453Z,3.63
2022-12-08T03:05:57.576Z,2.72
2022-12-08T03:08:50.437Z,2.58
2022-12-08T03:11:42.142Z,2.83
2022-12-08T03:14:12.138Z,2.67
2022-12-08T03:16:43.617Z,3.38
2022-12-08T03:19:18.618Z,3.35
2022-12-08T03:21:51.735Z,3.17
2022-12-08T03:24:22.008Z,3.10
2022-12-08T03:26:59.675Z,3.13
2022-12-08T03:29:26.668Z,3.47
2022-12-08T03:31:59.978Z,2.95
2022-12-08T03:34:29.861Z,3.25
2022-12-08T03:36:57.283Z,3.15
2022-12-08T03:39:24.454Z,3.05
2022-12-08T03:41:51.607Z,3.30
2022-12-08T03:44:18.416Z,3.28
2022-12-08T03:46:45.979Z,3.33
2022-12-08T03:49:12.786Z,3.70
2022-12-08T03:51:39.993Z,4.15
2022-12-08T03:54:06.830Z,3.58
2022-12-08T03:56:37.113Z,4.25
2022-12-08T03:59:05.546Z,3.85
2022-12-08T04:01:32.719Z,4.30
2022-12-08T04:03:59.723Z,4.07
2022-12-08T04:06:26.892Z,4.22
2022-12-08T04:08:53.822Z,4.22
2022-12-08T04:11:21.243Z,4.57
2022-12-08T04:13:48.479Z,3.90
2022-12-08T04:16:21.413Z,4.60
2022-12-08T04:18:48.889Z,4.00
2022-12-08T04:21:16.547Z,4.13
2022-12-08T04:23:43.729Z,4.68
2022-12-08T04:26:10.911Z,5.35
2022-12-08T04:28:38.139Z,4.60
2022-12-08T04:31:05.425Z,5.20
2022-12-08T04:33:32.467Z,5.75
2022-12-08T04:35:59.715Z,4.82
2022-12-08T04:38:26.557Z,5.20
2022-12-08T04:40:53.794Z,4.57
2022-12-08T04:43:20.745Z,5.97
2022-12-08T04:45:48.121Z,5.03
2022-12-08T04:48:15.347Z,5.72
2022-12-08T04:50:44.878Z,5.32
2022-12-08T04:53:12.653Z,5.35
2022-12-08T04:55:41.323Z,5.82
2022-12-08T04:58:08.248Z,5.78
2022-12-08T05:00:35.337Z,5.18
2022-12-08T05:03:02.244Z,6.35
2022-12-08T05:05:29.357Z,5.68
2022-12-08T05:07:56.303Z,4.78
2022-12-08T05:10:23.830Z,4.60
2022-12-08T05:12:50.748Z,4.60
2022-12-08T05:15:18.068Z,6.47
2022-12-08T05:17:44.870Z,5.40
2022-12-08T05:20:12.314Z,5.68
2022-12-08T05:22:39.137Z,5.35
2022-12-08T05:25:06.490Z,5.95
2022-12-08T05:27:33.361Z,5.75
2022-12-08T05:30:00.434Z,5.97
2022-12-08T05:32:27.322Z,6.10
2022-12-08T05:34:54.445Z,6.85
2022-12-08T05:37:21.339Z,6.53
2022-12-08T05:39:48.476Z,6.85
2022-12-08T05:42:18.353Z,6.85
2022-12-08T05:44:48.939Z,6.88
2022-12-08T05:47:15.753Z,6.95
2022-12-08T05:49:42.887Z,7.03
2022-12-08T05:52:10.003Z,6.50
2022-12-08T05:54:37.360Z,6.30
2022-12-08T05:57:04.176Z,6.63
2022-12-08T05:59:31.304Z,6.32
2022-12-08T06:01:58.280Z,6.22
2022-12-08T06:04:25.551Z,6.38
2022-12-08T06:06:52.479Z,6.15
2022-12-08T06:09:19.579Z,7.30
2022-12-08T06:11:47.319Z,6.43
2022-12-08T06:14:14.617Z,6.13
2022-12-08T06:16:41.559Z,6.50
2022-12-08T06:19:08.768Z,5.85
2022-12-08T06:21:35.632Z,6.72
2022-12-08T06:24:02.849Z,6.45
2022-12-08T06:26:29.770Z,6.00
2022-12-08T06:28:56.893Z,6.50
2022-12-08T06:31:25.860Z,6.82
2022-12-08T06:33:54.821Z,6.38
2022-12-08T06:36:25.254Z,6.15
2022-12-08T06:38:52.819Z,6.63
2022-12-08T06:41:19.821Z,6.78
2022-12-08T06:43:47.209Z,6.70
2022-12-08T06:46:17.635Z,6.32
2022-12-08T06:48:45.472Z,6.28
2022-12-08T06:51:17.865Z,6.35
2022-12-08T06:53:46.644Z,6.30
2022-12-08T06:56:15.930Z,6.05
2022-12-08T06:58:46.169Z,6.00
2022-12-08T07:01:17.540Z,6.10
2022-12-08T07:03:44.787Z,5.90
2022-12-08T07:06:24.020Z,6.32
2022-12-08T07:08:51.374Z,6.18
2022-12-08T07:11:21.863Z,6.90
2022-12-08T07:13:49.899Z,7.53
2022-12-08T07:16:16.852Z,6.13
2022-12-08T07:18:44.224Z,6.88
2022-12-08T07:21:13.319Z,6.47
2022-12-08T07:23:41.776Z,6.82
2022-12-08T07:26:11.337Z,6.03
2022-12-08T07:28:40.677Z,7.22
2022-12-08T07:31:15.998Z,6.35
2022-12-08T07:33:43.318Z,6.82
2022-12-08T07:36:10.453Z,6.15
2022-12-08T07:38:37.673Z,6.38
2022-12-08T07:41:04.818Z,6.97
2022-12-08T07:43:31.987Z,7.78
2022-12-08T07:45:58.973Z,6.65
2022-12-08T07:48:26.144Z,6.65
2022-12-08T07:51:00.450Z,6.55
2022-12-08T07:53:27.583Z,7.30
2022-12-08T07:55:54.449Z,8.57
2022-12-08T07:58:21.619Z,6.85
2022-12-08T08:00:48.527Z,7.60
2022-12-08T08:03:16.000Z,7.20
2022-12-08T08:05:44.158Z,7.70
2022-12-08T08:08:11.499Z,6.75
2022-12-08T08:10:38.379Z,7.65
2022-12-08T08:13:05.637Z,7.10
2022-12-08T08:15:32.544Z,7.47
2022-12-08T08:17:59.899Z,7.53
2022-12-08T08:20:27.095Z,7.28
2022-12-08T08:22:54.298Z,7.22
2022-12-08T08:25:24.695Z,7.68
2022-12-08T08:27:52.128Z,7.95
2022-12-08T08:30:20.983Z,7.85
2022-12-08T08:32:49.544Z,7.40
2022-12-08T08:35:16.813Z,7.65
2022-12-08T08:37:48.562Z,7.28
2022-12-08T08:40:17.379Z,7.35
2022-12-08T08:42:44.544Z,7.50
2022-12-08T08:45:11.636Z,7.78
2022-12-08T08:47:38.904Z,8.13
2022-12-08T08:50:06.821Z,8.82
2022-12-08T08:52:34.136Z,8.43
2022-12-08T08:55:00.972Z,9.00
2022-12-08T08:57:28.179Z,8.48
2022-12-08T08:59:55.265Z,8.63
2022-12-08T09:02:22.846Z,8.65
2022-12-08T09:04:50.074Z,8.68
2022-12-08T09:07:17.355Z,11.05
2022-12-08T09:09:44.238Z,9.32
2022-12-08T09:12:12.132Z,9.07
2022-12-08T09:14:39.202Z,8.82
2022-12-08T09:17:07.207Z,9.52
2022-12-08T09:19:34.958Z,10.00
2022-12-08T09:22:02.119Z,9.68
2022-12-08T09:24:29.020Z,9.07
2022-12-08T09:26:56.173Z,10.05
2022-12-08T09:29:23.019Z,10.35
2022-12-08T09:31:50.194Z,9.95
2022-12-08T09:34:17.158Z,10.65
2022-12-08T09:36:44.270Z,9.63
2022-12-08T09:39:11.150Z,10.18
2022-12-08T09:41:48.270Z,11.05
2022-12-08T09:44:38.773Z,10.43
2022-12-08T09:47:29.491Z,9.77
2022-12-08T09:50:11.290Z,10.75
2022-12-08T09:52:44.172Z,10.88
2022-12-08T09:55:24.563Z,10.85
2022-12-08T09:58:00.547Z,9.90
2022-12-08T10:00:27.789Z,10.40
2022-12-08T10:02:57.353Z,10.40
2022-12-08T10:05:26.289Z,10.23
2022-12-08T10:08:06.255Z,9.88
2022-12-08T10:10:42.120Z,9.90
2022-12-08T10:13:35.438Z,10.27
2022-12-08T10:16:29.699Z,10.32
2022-12-08T10:19:23.258Z,10.75
2022-12-08T10:21:53.110Z,11.93
2022-12-08T10:24:26.085Z,10.77
2022-12-08T10:26:55.314Z,10.98
2022-12-08T10:29:22.318Z,10.75
2022-12-08T10:31:49.652Z,10.93
2022-12-08T10:34:20.447Z,11.52
2022-12-08T10:36:56.345Z,11.10
2022-12-08T10:39:46.875Z,11.90
2022-12-08T10:42:14.251Z,11.80
2022-12-08T10:45:02.906Z,11.45
2022-12-08T10:47:35.315Z,12.48
2022-12-08T10:50:19.578Z,12.93
2022-12-08T10:52:55.161Z,12.45
2022-12-08T10:55:23.409Z,14.27
2022-12-08T10:57:50.649Z,12.50
2022-12-08T11:00:24.575Z,13.68
2022-12-08T11:02:53.400Z,13.50
2022-12-08T11:05:22.878Z,14.10
2022-12-08T11:07:52.777Z,13.95
2022-12-08T11:10:27.084Z,13.40
2022-12-08T11:12:55.302Z,15.00
2022-12-08T11:15:22.123Z,15.10
2022-12-08T11:18:00.959Z,13.43
2022-12-08T11:20:27.976Z,13.40
2022-12-08T11:22:56.607Z,14.65
2022-12-08T11:25:25.709Z,14.57
2022-12-08T11:28:01.813Z,14.05
2022-12-08T11:30:37.738Z,13.50
2022-12-08T11:33:19.454Z,12.13
2022-12-08T11:35:51.838Z,14.05
2022-12-08T11:38:22.771Z,12.98
2022-12-08T11:41:16.906Z,13.48
2022-12-08T11:44:06.933Z,13.60
2022-12-08T11:46:46.375Z,13.77
2022-12-08T11:49:14.687Z,14.57
2022-12-08T11:51:53.368Z,15.52
2022-12-08T11:54:35.140Z,13.85
2022-12-08T11:57:05.801Z,14.18
2022-12-08T11:59:38.390Z,15.23
2022-12-08T12:02:11.490Z,16.08
2022-12-08T12:05:02.803Z,15.50
2022-12-08T12:07:58.693Z,15.57
2022-12-08T12:10:31.893Z,14.77
2022-12-08T12:13:20.282Z,16.33
2022-12-08T12:16:05.528Z,14.57
2022-12-08T12:18:45.187Z,16.33
2022-12-08T12:21:28.136Z,16.45
2022-12-08T12:24:00.537Z,14.90
2022-12-08T12:26:37.201Z,14.88
2022-12-08T12:29:09.093Z,14.32
2022-12-08T12:31:41.653Z,15.70
2022-12-08T12:34:16.934Z,14.82
2022-12-08T12:37:03.304Z,15.63
2022-12-08T12:39:34.208Z,16.25
2022-12-08T12:42:04.664Z,14.57
2022-12-08T12:44:34.500Z,15.27
2022-12-08T12:47:04.339Z,15.48
2022-12-08T12:49:40.459Z,15.85
2022-12-08T12:52:10.326Z,15.38
2022-12-08T12:54:42.678Z,15.18
2022-12-08T12:57:09.863Z,16.92
2022-12-08T12:59:45.502Z,16.90
2022-12-08T13:02:36.083Z,15.80
2022-12-08T13:05:22.747Z,16.08
2022-12-08T13:08:01.059Z,16.35
2022-12-08T13:10:37.427Z,16.40
2022-12-08T13:13:24.953Z,15.77
2022-12-08T13:15:55.216Z,16.30
2022-12-08T13:18:46.456Z,16.73
2022-12-08T13:21:16.063Z,15.77
2022-12-08T13:23:48.982Z,16.38
2022-12-08T13:26:23.672Z,16.58
2022-12-08T13:29:01.246Z,17.50
2022-12-08T13:31:48.318Z,18.17
2022-12-08T13:34:20.323Z,17.63
2022-12-08T13:37:11.689Z,16.83
2022-12-08T13:39:38.852Z,17.17
2022-12-08T13:42:33.760Z,18.35
2022-12-08T13:45:33.965Z,18.58
2022-12-08T13:48:26.983Z,16.90
2022-12-08T13:57:26.536Z,17.08
2022-12-08T13:59:53.440Z,17.55
2022-12-08T14:02:30.178Z,17.65
2022-12-08T14:07:46.423Z,17.77
2022-12-08T14:10:19.595Z,17.67
2022-12-08T14:12:52.273Z,18.17
2022-12-08T14:15:19.480Z,17.50
2022-12-08T14:17:54.970Z,18.85
2022-12-08T14:20:30.362Z,17.52
2022-12-08T14:22:59.661Z,17.65
2022-12-08T14:25:30.143Z,18.98
2022-12-08T14:28:03.133Z,18.85
2022-12-08T14:30:34.710Z,18.20
2022-12-08T14:33:04.397Z,19.48
2022-12-08T14:35:37.057Z,17.17
2022-12-08T14:38:14.970Z,17.83
2022-12-08T14:40:53.834Z,18.70
2022-12-08T14:43:27.054Z,17.33
2022-12-08T14:45:58.265Z,17.77
2022-12-08T14:51:03.206Z,17.02
2022-12-08T14:53:38.197Z,17.40
2022-12-08T14:56:18.013Z,18.25
2022-12-08T14:58:45.668Z,16.75
2022-12-08T15:01:17.024Z,18.05
2022-12-08T15:06:20.896Z,16.48
2022-12-08T15:08:58.847Z,18.02
2022-12-08T15:11:34.968Z,17.80
2022-12-08T15:14:03.051Z,18.60
2022-12-08T15:16:43.478Z,18.40
2022-12-08T15:19:24.451Z,17.60
2022-12-08T15:21:51.402Z,18.33
2022-12-08T15:24:19.880Z,18.67
2022-12-08T15:26:49.941Z,17.35
2022-12-08T15:29:29.511Z,18.05
2022-12-08T15:32:01.612Z,18.48
2022-12-08T15:34:31.639Z,17.45
2022-12-08T15:36:58.538Z,18.13
2022-12-08T15:39:34.868Z,18.27
2022-12-08T15:42:03.188Z,19.48
2022-12-08T15:44:32.809Z,18.08
2022-12-08T15:47:00.799Z,19.13
2022-12-08T15:49:28.109Z,17.30
2022-12-08T15:52:04.941Z,18.38
2022-12-08T15:54:37.698Z,17.83
2022-12-08T15:57:19.459Z,18.63
2022-12-08T15:59:50.410Z,17.42
2022-12-08T16:02:22.353Z,18.55
2022-12-08T16:07:38.264Z,17.52
2022-12-08T16:10:08.012Z,18.00
2022-12-08T16:15:59.127Z,17.40
2022-12-08T16:18:29.982Z,17.70
2022-12-08T16:21:31.597Z,16.33
2022-12-08T16:23:45.477Z,18.20
2022-12-08T16:26:28.359Z,19.05
2022-12-08T16:28:55.792Z,19.90
2022-12-08T16:31:23.527Z,18.15
2022-12-08T16:33:50.471Z,17.40
2022-12-08T16:36:17.962Z,18.92
2022-12-08T16:38:44.901Z,19.52
2022-12-08T16:41:35.132Z,18.67
2022-12-08T16:44:03.889Z,17.58
2022-12-08T16:46:31.681Z,18.20
2022-12-08T16:48:59.135Z,19.58
2022-12-08T16:51:27.545Z,19.55
2022-12-08T16:53:57.158Z,18.05
2022-12-08T16:56:30.631Z,19.60
2022-12-08T16:58:59.949Z,16.50
2022-12-08T17:01:27.824Z,18.70
2022-12-08T17:06:42.682Z,16.92
2022-12-08T17:09:09.728Z,17.90
2022-12-08T17:11:42.933Z,17.77
2022-12-08T17:14:13.092Z,16.13
2022-12-08T17:16:41.475Z,16.90
2022-12-08T17:19:08.983Z,18.20
2022-12-08T17:21:36.944Z,16.73
2022-12-08T17:24:04.853Z,16.92
2022-12-08T17:26:32.080Z,16.15
2022-12-08T17:29:00.959Z,16.13
2022-12-08T17:31:31.236Z,15.27
2022-12-08T17:34:03.057Z,15.82
2022-12-08T17:36:31.213Z,15.82
2022-12-08T17:38:59.837Z,15.68
2022-12-08T17:41:27.178Z,16.65
2022-12-08T17:43:54.133Z,15.18
2022-12-08T17:46:22.899Z,15.20
2022-12-08T17:48:50.227Z,15.50
2022-12-08T17:51:17.544Z,15.85
2022-12-08T17:53:44.629Z,16.40
2022-12-08T17:56:21.390Z,16.55
2022-12-08T17:58:54.214Z,15.63
2022-12-08T18:01:41.037Z,14.68
2022-12-08T18:04:09.969Z,16.23
2022-12-08T18:06:38.129Z,15.57
2022-12-08T18:09:07.854Z,15.38
2022-12-08T18:11:35.690Z,16.35
2022-12-08T18:14:10.148Z,16.95
2022-12-08T18:16:39.874Z,15.75
2022-12-08T18:19:07.867Z,16.45
2022-12-08T18:21:35.705Z,16.42
2022-12-08T18:24:04.234Z,15.30
2022-12-08T18:26:31.183Z,17.10
2022-12-08T18:28:58.565Z,15.68
2022-12-08T18:31:25.789Z,18.23
2022-12-08T18:33:53.196Z,16.13
2022-12-08T18:36:23.993Z,16.55
2022-12-08T18:38:52.483Z,16.77
2022-12-08T18:41:26.249Z,16.15
2022-12-08T18:43:55.279Z,15.65
2022-12-08T18:46:22.420Z,17.55
2022-12-08T18:48:51.402Z,16.98
2022-12-08T18:51:21.264Z,17.85
2022-12-08T18:53:49.207Z,16.52
2022-12-08T18:56:28.482Z,17.80
2022-12-08T18:59:02.795Z,17.27
2022-12-08T19:01:32.115Z,17.67
2022-12-08T19:06:47.470Z,16.85
2022-12-08T19:09:15.923Z,17.23
2022-12-08T19:11:43.255Z,17.95
2022-12-08T19:14:11.535Z,16.27
2022-12-08T19:16:38.466Z,18.17
2022-12-08T19:19:06.192Z,18.35
2022-12-08T19:21:33.254Z,17.02
2022-12-08T19:24:00.486Z,17.35
2022-12-08T19:26:28.289Z,17.70
2022-12-08T19:28:56.230Z,17.42
2022-12-08T19:31:23.173Z,17.17
2022-12-08T19:33:50.518Z,18.08
2022-12-08T19:36:20.922Z,18.40
2022-12-08T19:39:06.887Z,18.55
2022-12-08T19:41:52.332Z,18.50
2022-12-08T19:44:34.068Z,18.40
2022-12-08T19:47:01.615Z,18.30
2022-12-08T19:49:28.951Z,18.58
2022-12-08T19:51:56.219Z,17.35
2022-12-08T19:54:24.111Z,19.38
2022-12-08T19:56:51.443Z,17.80
2022-12-08T19:59:19.291Z,17.95
2022-12-08T20:01:48.459Z,18.35
2022-12-08T20:04:16.610Z,19.25
2022-12-08T20:06:44.527Z,17.85
2022-12-08T20:09:12.962Z,17.98
2022-12-08T20:11:40.755Z,18.50
2022-12-08T20:14:08.414Z,17.65
2022-12-08T20:16:35.717Z,18.73
2022-12-08T20:19:02.985Z,18.83
2022-12-08T20:21:30.095Z,17.30
2022-12-08T20:23:57.314Z,18.63
2022-12-08T20:26:24.222Z,17.27
2022-12-08T20:28:51.628Z,18.58
2022-12-08T20:31:20.319Z,17.92
2022-12-08T20:33:47.926Z,19.35
2022-12-08T20:36:18.746Z,18.40
2022-12-08T20:38:47.929Z,17.92
2022-12-08T20:41:16.179Z,18.30
2022-12-08T20:43:44.614Z,16.90
2022-12-08T20:46:14.313Z,18.83
2022-12-08T20:48:42.313Z,17.35
2022-12-08T20:51:12.813Z,17.98
2022-12-08T20:53:40.010Z,19.95
2022-12-08T20:56:07.417Z,19.27
2022-12-08T20:58:34.739Z,19.83
2022-12-08T21:01:01.862Z,16.75
2022-12-08T21:03:29.210Z,17.35
2022-12-08T21:05:56.815Z,18.08
2022-12-08T21:08:26.059Z,18.55
2022-12-08T21:10:54.500Z,18.40
2022-12-08T21:13:21.840Z,19.00
2022-12-08T21:15:49.040Z,18.73
2022-12-08T21:18:17.025Z,18.33
2022-12-08T21:20:44.210Z,17.25
2022-12-08T21:23:12.048Z,18.40
2022-12-08T21:25:43.655Z,18.38
2022-12-08T21:28:11.473Z,17.77
2022-12-08T21:30:40.204Z,18.30
2022-12-08T21:33:07.708Z,18.83
2022-12-08T21:35:34.881Z,17.55
2022-12-08T21:38:02.190Z,16.48
2022-12-08T21:40:29.068Z,18.10
2022-12-08T21:42:56.416Z,17.13
2022-12-08T21:45:23.344Z,17.45
2022-12-08T21:47:50.741Z,17.70
2022-12-08T21:50:18.532Z,18.27
2022-12-08T21:52:47.925Z,17.25
2022-12-08T21:55:16.430Z,18.88
2022-12-08T21:58:02.282Z,16.75
2022-12-08T22:00:29.852Z,17.30
2022-12-08T22:02:58.072Z,17.35
2022-12-08T22:05:25.510Z,17.55
2022-12-08T22:07:52.373Z,17.35
2022-12-08T22:10:21.130Z,17.83
2022-12-08T22:12:48.347Z,18.48
2022-12-08T22:15:15.800Z,17.20
2022-12-08T22:17:43.936Z,19.35
2022-12-08T22:20:13.692Z,17.67
2022-12-08T22:22:41.350Z,18.88
2022-12-08T22:25:12.611Z,18.23
2022-12-08T22:27:41.046Z,17.65
2022-12-08T22:30:09.605Z,18.17
2022-12-08T22:32:37.186Z,17.75
2022-12-08T22:35:04.631Z,17.25
2022-12-08T22:37:31.630Z,18.30
2022-12-08T22:39:58.914Z,18.15
2022-12-08T22:42:26.609Z,19.02
2022-12-08T22:44:53.831Z,19.35
2022-12-08T22:47:20.805Z,18.67
2022-12-08T22:49:48.474Z,19.35
2022-12-08T22:52:15.384Z,19.02
2022-12-08T22:54:42.518Z,20.30
2022-12-08T22:57:09.424Z,19.27
2022-12-08T22:59:54.994Z,21.05
2022-12-08T23:02:22.077Z,18.75
2022-12-08T23:04:49.020Z,19.17
2022-12-08T23:07:16.572Z,18.48
2022-12-08T23:09:43.587Z,18.52
2022-12-08T23:12:10.673Z,18.70
2022-12-08T23:14:37.524Z,19.20
2022-12-08T23:17:04.935Z,19.08
2022-12-08T23:19:31.969Z,18.73
2022-12-08T23:21:59.222Z,18.60
2022-12-08T23:24:26.036Z,18.38
2022-12-08T23:26:53.156Z,19.33
2022-12-08T23:29:20.254Z,20.02
2022-12-08T23:31:47.709Z,19.23
2022-12-08T23:34:14.850Z,20.27
2022-12-08T23:36:42.133Z,20.08
2022-12-08T23:39:11.032Z,20.02
2022-12-08T23:41:38.303Z,19.63
2022-12-08T23:44:05.317Z,20.25
2022-12-08T23:46:32.757Z,19.85
2022-12-08T23:48:59.823Z,20.17
2022-12-08T23:51:27.567Z,20.20
2022-12-08T23:53:54.730Z,20.35
2022-12-08T23:56:24.363Z,21.88
2022-12-08T23:58:53.943Z,20.65
